Time;durP1;ratioP1;P1;durP2;ratioP2;P2;SDS_P1;SDS_P2;PMS_P1;PMS_P2;Temp;Humidity;BMP_temperature;BMP_pressure;BME280_temperature;BME280_humidity;BME280_pressure;Samples;Min_cycle;Max_cycle;Signal;HPM_P1;HPM_P2
2022/06/03 00:00:24;;;;;;;7.35;4.90;;;;;;;15.20;54.51;101854.44;5035283;28;20494;-61
2022/06/03 00:02:49;;;;;;;6.80;5.00;;;;;;;15.18;54.67;101860.63;5035360;28;20387;-61
2022/06/03 00:05:49;;;;;;;7.03;4.78;;;;;;;15.17;54.17;101854.41;5035456;28;20026;-62
2022/06/03 00:08:23;;;;;;;7.32;4.60;;;;;;;15.19;54.60;101852.63;5035220;28;20025;-61
2022/06/03 00:10:58;;;;;;;7.05;4.95;;;;;;;15.12;55.01;101848.16;5034869;28;20064;-62
2022/06/03 00:13:26;;;;;;;7.88;5.00;;;;;;;15.14;54.84;101853.50;5035046;28;20083;-61
2022/06/03 00:16:10;;;;;;;7.85;5.13;;;;;;;15.00;55.34;101843.63;5035003;28;20035;-61
2022/06/03 00:19:11;;;;;;;7.57;5.05;;;;;;;15.03;55.14;101850.72;5035210;28;20034;-62
2022/06/03 00:21:52;;;;;;;6.50;5.05;;;;;;;14.98;55.26;101847.13;5034820;28;20064;-61
2022/06/03 00:24:42;;;;;;;6.97;5.03;;;;;;;14.94;55.37;101855.97;5034798;28;20025;-61
2022/06/03 00:27:35;;;;;;;6.50;4.93;;;;;;;14.95;55.24;101857.78;5034492;28;20029;-63
2022/06/03 00:30:03;;;;;;;8.73;4.88;;;;;;;14.84;56.20;101851.44;5034713;28;20029;-61
2022/06/03 00:32:42;;;;;;;6.32;4.95;;;;;;;14.77;56.46;101848.75;5034724;28;20083;-61
2022/06/03 00:35:35;;;;;;;6.65;5.03;;;;;;;14.78;55.94;101847.88;5034626;28;20571;-61
2022/06/03 00:38:09;;;;;;;;;;;;;;;14.88;54.85;101847.94;5034920;28;20048;-61
2022/06/03 00:41:07;;;;;;;6.35;4.60;;;;;;;14.81;55.31;101848.75;5034551;28;20363;-61
2022/06/03 00:43:53;;;;;;;6.28;4.95;;;;;;;14.73;56.59;101844.28;4973450;28;20046;-61
2022/06/03 00:46:56;;;;;;;8.40;5.15;;;;;;;14.74;56.18;101851.38;4973342;28;20480;-61
2022/06/03 00:49:49;;;;;;;7.10;5.10;;;;;;;14.71;56.25;101837.13;4973627;28;20042;-62
2022/06/03 00:52:21;;;;;;;5.47;4.75;;;;;;;14.74;56.20;101840.72;4973432;28;20070;-61
2022/06/03 00:55:04;;;;;;;10.13;5.07;;;;;;;14.73;56.51;101844.28;4973355;28;20046;-62
2022/06/03 00:57:48;;;;;;;6.22;5.00;;;;;;;14.74;56.59;101846.06;4973421;28;20448;-61
2022/06/03 01:00:40;;;;;;;6.32;4.75;;;;;;;14.70;56.80;101844.22;4973241;28;20035;-61
2022/06/03 01:03:08;;;;;;;7.88;5.10;;;;;;;14.68;56.63;101842.41;4899677;29;20491;-61
2022/06/03 01:06:22;;;;;;;5.20;4.50;;;;;;;14.68;56.46;101842.41;4915807;29;20084;-61
2022/06/03 01:09:14;;;;;;;6.28;4.88;;;;;;;14.63;56.50;101837.06;4902882;29;20044;-62
2022/06/03 01:12:02;;;;;;;5.57;4.97;;;;;;;14.55;57.10;101835.19;4915563;29;20036;-61
2022/06/03 01:15:11;;;;;;;6.50;5.00;;;;;;;14.49;56.80;101834.25;4915677;29;20079;-61
2022/06/03 01:17:57;;;;;;;7.65;4.97;;;;;;;14.49;57.22;101836.03;4859263;29;20046;-62
2022/06/03 01:20:41;;;;;;;6.35;4.57;;;;;;;14.48;57.12;101834.22;4872121;29;20093;-61
2022/06/03 01:23:31;;;;;;;6.63;5.20;;;;;;;14.47;57.22;101827.09;4878060;29;20178;-61
2022/06/03 01:26:11;;;;;;;6.55;5.00;;;;;;;14.45;57.80;101824.44;4877877;29;20515;-61
2022/06/03 01:29:14;;;;;;;6.72;4.78;;;;;;;14.49;57.34;101825.41;4877465;29;20140;-62
2022/06/03 01:32:17;;;;;;;7.22;5.22;;;;;;;14.48;57.40;101816.53;4877794;29;20186;-61
2022/06/03 01:35:04;;;;;;;6.18;5.32;;;;;;;14.42;57.55;101812.88;4877744;29;20052;-61
2022/06/03 01:37:48;;;;;;;6.38;4.72;;;;;;;14.42;57.46;101813.75;4877891;29;20048;-61
2022/06/03 01:40:32;;;;;;;6.93;5.43;;;;;;;14.42;57.49;101815.53;4901522;29;20251;-61
2022/06/03 01:43:04;;;;;;;7.13;5.22;;;;;;;14.40;57.94;101812.88;4915122;29;20032;-61
2022/06/03 01:46:00;;;;;;;8.73;5.50;;;;;;;14.43;57.06;101807.59;4915093;29;20482;-61
2022/06/03 01:49:01;;;;;;;6.45;5.03;;;;;;;14.45;57.46;101808.47;4915185;29;20359;-61
2022/06/03 01:52:03;;;;;;;6.35;5.35;;;;;;;14.40;57.38;101804.88;4914832;29;20036;-61
2022/06/03 01:54:48;;;;;;;8.90;5.75;;;;;;;14.31;58.13;101806.56;4978560;28;20046;-61
2022/06/03 01:57:43;;;;;;;6.95;5.35;;;;;;;14.40;57.63;101804.00;5014888;28;20040;-61
2022/06/03 02:00:23;;;;;;;7.22;5.60;;;;;;;14.39;57.60;101804.84;5014011;28;20037;-61
2022/06/03 02:03:26;;;;;;;6.72;5.35;;;;;;;14.38;57.69;101789.78;5013434;28;20467;-61
2022/06/03 02:06:10;;;;;;;7.88;5.35;;;;;;;14.29;58.43;101791.47;5013451;28;20030;-61
2022/06/03 02:08:54;;;;;;;6.90;5.53;;;;;;;14.28;58.73;101799.44;5013426;28;20045;-61
2022/06/03 02:11:44;;;;;;;6.82;5.50;;;;;;;14.26;58.96;101790.53;5013126;28;20026;-61
2022/06/03 02:14:30;;;;;;;7.75;5.35;;;;;;;14.24;58.40;101786.97;5013278;28;20034;-61
2022/06/03 02:17:11;;;;;;;6.68;5.07;;;;;;;14.25;58.35;101784.31;5012927;28;20067;-61
2022/06/03 02:20:13;;;;;;;6.90;5.53;;;;;;;14.27;58.01;101787.91;5013449;28;20038;-61
2022/06/03 02:22:59;;;;;;;8.77;5.55;;;;;;;14.17;58.76;101780.69;5013223;28;20486;-61
2022/06/03 02:25:37;;;;;;;10.60;5.28;;;;;;;14.11;59.34;101787.72;5013187;28;20345;-61
2022/06/03 02:28:23;;;;;;;10.05;5.35;;;;;;;14.08;59.70;101788.56;5020161;28;20387;-61
2022/06/03 02:31:01;;;;;;;9.77;6.00;;;;;;;14.04;59.57;101795.59;5033042;28;20033;-61
2022/06/03 02:33:53;;;;;;;7.55;5.78;;;;;;;14.07;59.70;101791.22;5032711;28;20394;-62
2022/06/03 02:36:49;;;;;;;6.45;5.40;;;;;;;14.06;59.16;101792.09;5032993;28;20155;-61
2022/06/03 02:39:33;;;;;;;8.50;5.65;;;;;;;14.08;58.96;101787.69;5032794;28;20072;-61
2022/06/03 02:42:14;;;;;;;8.07;5.50;;;;;;;14.04;59.86;101786.75;5032798;28;20041;-61
2022/06/03 02:44:45;;;;;;;7.15;5.85;;;;;;;13.96;59.86;101778.72;5032764;28;20368;-61
2022/06/03 02:47:44;;;;;;;6.50;5.65;;;;;;;13.97;59.37;101782.25;5032697;28;20037;-61
2022/06/03 02:50:25;;;;;;;9.82;5.70;;;;;;;13.90;59.89;101778.63;5032418;28;20394;-62
2022/06/03 02:53:24;;;;;;;7.07;5.85;;;;;;;13.87;59.91;101767.94;5032689;28;20605;-61
2022/06/03 02:55:58;;;;;;;6.95;5.18;;;;;;;13.80;60.43;101771.44;5032580;28;20378;-61
2022/06/03 02:58:47;;;;;;;8.52;5.57;;;;;;;13.78;60.52;101763.41;5032553;28;20030;-62
2022/06/03 03:01:31;;;;;;;6.60;5.10;;;;;;;13.73;61.04;101773.09;5032565;28;20029;-61
2022/06/03 03:04:17;;;;;;;6.57;5.57;;;;;;;13.73;60.51;101772.22;5032568;28;20116;-61
2022/06/03 03:06:57;;;;;;;7.20;5.60;;;;;;;13.75;60.92;101779.34;5032590;28;20395;-61
2022/06/03 03:09:56;;;;;;;7.35;5.75;;;;;;;13.74;60.62;101774.00;5036205;28;20033;-61
2022/06/03 03:12:55;;;;;;;8.65;5.70;;;;;;;13.73;60.33;101781.06;5036171;28;20386;-61
2022/06/03 03:15:54;;;;;;;7.30;5.68;;;;;;;13.81;60.01;101790.91;5035828;28;20033;-62
2022/06/03 03:18:44;;;;;;;8.70;5.82;;;;;;;13.82;60.10;101784.72;5036140;28;20120;-61
2022/06/03 03:21:32;;;;;;;7.85;5.68;;;;;;;13.76;60.62;101775.81;5035565;28;20482;-61
2022/06/03 03:24:25;;;;;;;6.97;5.68;;;;;;;13.80;60.36;101771.44;5035374;28;20036;-61
2022/06/03 03:27:14;;;;;;;10.05;5.72;;;;;;;13.77;60.41;101763.41;5035141;28;20044;-61
2022/06/03 03:30:17;;;;;;;8.10;5.65;;;;;;;13.72;60.22;101767.78;5035237;28;20449;-61
2022/06/03 03:33:19;;;;;;;9.10;5.60;;;;;;;13.70;60.50;101769.50;5035125;28;20025;-61
2022/06/03 03:36:01;;;;;;;7.15;5.78;;;;;;;13.64;60.95;101766.78;5035094;28;20064;-61
2022/06/03 03:38:45;;;;;;;;;;;;;;;13.73;59.82;101762.47;5035221;28;20068;-61
2022/06/03 03:41:44;;;;;;;7.20;5.85;;;;;;;13.66;61.06;101762.38;5034878;28;19939;-61
2022/06/03 03:44:51;;;;;;;7.55;5.50;;;;;;;13.65;60.49;101758.81;5035224;28;20106;-61
2022/06/03 03:47:53;;;;;;;8.25;5.88;;;;;;;13.63;60.81;101749.06;5034862;28;20038;-61
2022/06/03 03:50:34;;;;;;;8.93;5.70;;;;;;;13.57;61.44;101749.88;5034792;28;20025;-61
2022/06/03 03:53:00;;;;;;;8.00;6.10;;;;;;;13.55;61.52;101753.41;5034719;28;20466;-61
2022/06/03 03:55:43;;;;;;;7.10;5.80;;;;;;;13.49;61.70;101755.09;5034671;28;20095;-62
2022/06/03 03:58:17;;;;;;;6.88;5.82;;;;;;;13.50;61.77;101748.91;5034659;28;20542;-61
2022/06/03 04:01:02;;;;;;;7.60;6.15;;;;;;;13.47;61.98;101754.16;5034791;28;20036;-61
2022/06/03 04:03:55;;;;;;;7.50;6.00;;;;;;;13.45;61.76;101753.28;5034605;28;20081;-61
2022/06/03 04:06:45;;;;;;;7.70;5.88;;;;;;;13.43;62.10;101755.00;5016685;28;20112;-61
2022/06/03 04:09:20;;;;;;;7.32;6.10;;;;;;;13.43;62.13;101747.03;5034346;28;20111;-61
2022/06/03 04:12:13;;;;;;;8.93;6.13;;;;;;;13.40;62.17;101748.75;5034397;28;20044;-61
2022/06/03 04:14:39;;;;;;;7.95;5.97;;;;;;;13.38;62.43;101742.53;5034373;28;20076;-61
2022/06/03 04:17:13;;;;;;;8.68;6.00;;;;;;;13.36;62.57;101738.97;5034673;28;20111;-61
2022/06/03 04:20:09;;;;;;;8.00;6.07;;;;;;;13.39;62.47;101742.56;5034036;28;20474;-61
2022/06/03 04:23:06;;;;;;;8.65;6.20;;;;;;;13.39;62.57;101742.56;5034507;28;20109;-61
2022/06/03 04:26:02;;;;;;;7.45;6.15;;;;;;;13.39;62.57;101741.66;5034846;28;20052;-60
2022/06/03 04:29:07;;;;;;;7.28;6.20;;;;;;;13.32;62.65;101731.81;5016785;28;20402;-61
2022/06/03 04:31:54;;;;;;;7.47;6.30;;;;;;;13.29;63.34;101730.03;4972812;28;20113;-61
2022/06/03 04:35:21;;;;;;;9.98;6.82;;;;;;;13.33;63.27;101730.97;4972978;28;20050;-60
2022/06/03 04:38:04;;;;;;;8.35;6.28;;;;;;;13.35;63.17;101730.09;4896370;29;20048;-61
2022/06/03 04:41:09;;;;;;;9.07;6.50;;;;;;;13.39;63.23;101736.34;4934461;29;20417;-61
2022/06/03 04:44:02;;;;;;;9.60;6.63;;;;;;;13.43;62.87;101746.16;4934075;29;20035;-61
2022/06/03 04:47:04;;;;;;;8.73;6.43;;;;;;;13.45;63.03;101741.78;4918365;29;20066;-61
2022/06/03 04:49:51;;;;;;;7.80;6.57;;;;;;;13.47;63.37;101754.16;4934465;29;20122;-61
2022/06/03 04:52:31;;;;;;;9.13;6.60;;;;;;;13.48;63.30;101747.97;4934210;29;20044;-61
2022/06/03 04:55:30;;;;;;;9.82;6.65;;;;;;;13.59;63.35;101765.84;4934271;29;20052;-61
2022/06/03 04:58:21;;;;;;;9.73;6.88;;;;;;;13.70;62.83;101762.47;4934217;29;20047;-61
2022/06/03 05:01:24;;;;;;;10.43;6.72;;;;;;;13.81;62.89;101753.72;4934002;28;20454;-61
2022/06/03 05:04:06;;;;;;;10.75;6.55;;;;;;;13.94;62.38;101755.63;4934103;29;20128;-61
2022/06/03 05:06:59;;;;;;;12.60;6.67;;;;;;;14.04;62.09;101750.44;4969291;28;20038;-62
2022/06/03 05:09:55;;;;;;;8.85;6.63;;;;;;;14.12;62.17;101750.53;4972430;28;20042;-61
2022/06/03 05:12:23;;;;;;;6.97;6.00;;;;;;;14.23;62.35;101754.19;4972504;28;20077;-61
2022/06/03 05:15:00;;;;;;;10.30;6.88;;;;;;;14.29;62.39;101750.69;5007972;28;20449;-61
2022/06/03 05:17:49;;;;;;;10.60;6.32;;;;;;;14.44;61.38;101761.50;5033206;28;20036;-61
2022/06/03 05:20:29;;;;;;;8.43;6.45;;;;;;;14.57;61.09;101751.00;5033217;28;20029;-61
2022/06/03 05:22:57;;;;;;;7.93;6.45;;;;;;;14.69;60.96;101746.69;5033239;28;20028;-61
2022/06/03 05:25:51;;;;;;;10.02;6.47;;;;;;;14.86;60.31;101740.56;5033059;28;20048;-62
2022/06/03 05:28:28;;;;;;;9.00;5.95;;;;;;;14.98;60.58;101738.91;5032823;28;20067;-61
2022/06/03 05:31:22;;;;;;;10.38;6.30;;;;;;;15.14;59.18;101747.00;5032179;28;20056;-61
2022/06/03 05:34:04;;;;;;;9.05;6.72;;;;;;;15.24;59.45;101730.19;5032844;28;20033;-62
2022/06/03 05:36:53;;;;;;;8.63;6.22;;;;;;;15.28;59.05;101727.53;5033049;28;20025;-61
2022/06/03 05:39:21;;;;;;;10.18;7.03;;;;;;;15.38;58.99;101724.97;5033009;28;20109;-61
2022/06/03 05:42:24;;;;;;;7.10;6.40;;;;;;;15.57;59.11;101728.59;5032894;28;20068;-61
2022/06/03 05:45:15;;;;;;;10.25;7.10;;;;;;;15.75;58.02;101737.56;5033025;28;20037;-61
2022/06/03 05:47:40;;;;;;;7.70;6.85;;;;;;;15.86;57.28;101737.63;5032907;28;20103;-61
2022/06/03 05:50:17;;;;;;;12.90;6.95;;;;;;;16.00;57.28;101732.31;5032781;28;20262;-61
2022/06/03 05:53:02;;;;;;;13.32;6.97;;;;;;;15.97;56.78;101727.88;5032678;28;20026;-61
2022/06/03 05:55:58;;;;;;;7.93;6.70;;;;;;;16.08;56.66;101740.34;5032643;28;20037;-61
2022/06/03 05:58:37;;;;;;;36.13;23.77;;;;;;;16.19;56.24;101727.94;5032852;28;20427;-61
2022/06/03 06:01:28;;;;;;;13.60;7.47;;;;;;;16.36;56.52;101734.19;5032637;28;20503;-61
2022/06/03 06:04:11;;;;;;;16.23;7.05;;;;;;;16.55;56.30;101742.19;5032668;28;20025;-61
2022/06/03 06:06:59;;;;;;;20.40;7.28;;;;;;;16.69;55.61;101729.72;5032587;28;20471;-61
2022/06/03 06:09:46;;;;;;;9.70;6.70;;;;;;;16.88;55.31;101731.53;5032587;28;20037;-62
2022/06/03 06:12:19;;;;;;;8.50;6.63;;;;;;;17.03;54.79;101731.50;5014752;28;20394;-61
2022/06/03 06:15:13;;;;;;;9.20;6.43;;;;;;;17.13;53.54;101736.81;5032779;28;20017;-61
2022/06/03 06:17:54;;;;;;;8.63;6.55;;;;;;;17.24;53.37;101738.59;4971289;28;20043;-61
2022/06/03 06:20:43;;;;;;;11.48;6.55;;;;;;;17.36;53.17;101736.78;4971436;28;20046;-61
2022/06/03 06:23:19;;;;;;;13.15;6.75;;;;;;;17.49;52.77;101743.88;4971480;28;20105;-61
2022/06/03 06:26:14;;;;;;;8.25;6.18;;;;;;;17.69;52.40;101755.38;4971410;28;20101;-62
2022/06/03 06:28:49;;;;;;;7.93;5.95;;;;;;;17.89;52.01;101751.75;4966548;28;20085;-62
2022/06/03 06:31:52;;;;;;;7.97;6.07;;;;;;;18.09;51.41;101736.50;4955120;28;20062;-61
2022/06/03 06:34:55;;;;;;;8.85;6.13;;;;;;;18.30;50.73;101742.59;4971720;28;20126;-61
2022/06/03 06:37:39;;;;;;;10.02;6.35;;;;;;;18.46;50.92;101736.25;4971398;28;20051;-61
2022/06/03 06:40:14;;;;;;;10.40;6.18;;;;;;;18.67;51.56;101740.50;4971346;28;20030;-61
2022/06/03 06:42:48;;;;;;;8.35;6.10;;;;;;;18.83;48.93;101739.53;4974049;28;20031;-62
2022/06/03 06:45:27;;;;;;;7.85;6.07;;;;;;;19.04;48.79;101732.19;4975122;28;20189;-62
2022/06/03 06:48:06;;;;;;;9.75;6.30;;;;;;;19.15;48.45;101730.31;4975163;28;20039;-62
2022/06/03 06:50:41;;;;;;;9.43;6.57;;;;;;;19.24;47.68;101730.19;4975160;28;20118;-61
2022/06/03 06:53:23;;;;;;;7.45;5.90;;;;;;;19.33;47.83;101743.50;4981536;28;20105;-62
2022/06/03 06:55:53;;;;;;;;;;;;;;;19.54;47.83;101744.16;5036409;28;20128;-61
2022/06/03 06:58:28;;;;;;;11.27;6.35;;;;;;;19.58;46.93;101737.84;5036496;28;19913;-61
2022/06/03 07:00:54;;;;;;;7.30;6.03;;;;;;;19.65;46.66;101732.41;5036481;28;20044;-61
2022/06/03 07:03:38;;;;;;;8.60;6.38;;;;;;;19.80;46.77;101736.69;5036394;28;20022;-61
2022/06/03 07:06:23;;;;;;;13.63;6.28;;;;;;;19.89;46.85;101736.56;5035872;28;20021;-61
2022/06/03 07:08:57;;;;;;;9.18;6.38;;;;;;;20.13;46.48;101734.47;5035835;28;20037;-62
2022/06/03 07:11:36;;;;;;;8.57;5.95;;;;;;;20.35;45.08;101727.84;5035892;28;20052;-61
2022/06/03 07:14:07;;;;;;;7.03;6.10;;;;;;;20.52;46.10;101727.63;5035761;28;20037;-61
2022/06/03 07:19:50;;;;;;;7.35;6.28;;;;;;;20.90;44.90;101728.78;5035839;28;20044;-61
2022/06/03 07:22:47;;;;;;;8.63;6.18;;;;;;;21.17;44.95;101728.25;5035502;28;20471;-61
2022/06/03 07:25:16;;;;;;;8.93;6.80;;;;;;;21.32;43.44;101726.19;5035491;28;20021;-61
2022/06/03 07:28:00;;;;;;;9.57;7.28;;;;;;;21.39;43.48;101722.47;5035515;28;20109;-60
2022/06/03 07:30:43;;;;;;;9.43;6.35;;;;;;;21.50;42.87;101721.34;5035259;28;20076;-62
2022/06/03 07:33:35;;;;;;;10.10;6.22;;;;;;;21.65;43.02;101713.88;5035416;28;20029;-61
2022/06/03 07:36:34;;;;;;;9.52;6.13;;;;;;;21.86;43.43;101715.22;5035326;28;20025;-62
2022/06/03 07:39:26;;;;;;;11.68;6.68;;;;;;;22.16;42.24;101719.06;5035239;28;20469;-61
2022/06/03 07:41:52;;;;;;;16.43;6.90;;;;;;;22.15;41.43;101715.47;5035140;28;20022;-62
2022/06/03 07:44:27;;;;;;;11.48;6.85;;;;;;;22.42;42.47;101711.22;5035066;28;20268;-62
2022/06/03 07:47:01;;;;;;;24.73;7.30;;;;;;;22.57;42.65;101712.66;5035052;28;20462;-62
2022/06/03 07:49:29;;;;;;;19.02;7.22;;;;;;;22.69;42.42;101716.84;5035235;28;20039;-62
2022/06/03 07:52:02;;;;;;;28.05;7.55;;;;;;;22.84;41.88;101700.28;5035063;28;20386;-62
2022/06/03 07:54:31;;;;;;;21.90;7.18;;;;;;;23.14;40.95;101701.28;5034412;28;20123;-62
2022/06/03 07:57:07;;;;;;;19.55;7.30;;;;;;;23.40;40.74;101699.66;5035063;28;20029;-62
2022/06/03 07:59:35;;;;;;;11.25;6.50;;;;;;;23.28;39.65;101703.59;5035031;28;20034;-61
2022/06/03 08:02:15;;;;;;;11.82;6.70;;;;;;;23.48;39.32;101717.41;5034882;28;20112;-61
2022/06/03 08:04:42;;;;;;;15.07;6.78;;;;;;;23.41;39.98;101718.50;5034824;28;20040;-61
2022/06/03 08:13:08;;;;;;;22.40;7.28;;;;;;;23.89;39.66;101698.22;5034916;28;20076;-61
2022/06/03 08:15:40;;;;;;;27.92;8.18;;;;;;;24.01;39.66;101692.44;5034535;28;20088;-62
2022/06/03 08:18:07;;;;;;;35.88;8.25;;;;;;;24.11;38.65;101680.44;5034590;28;20029;-62
2022/06/03 08:20:51;;;;;;;30.00;7.22;;;;;;;24.37;37.43;101678.69;5034730;28;20029;-62
2022/06/03 08:23:19;;;;;;;17.08;7.57;;;;;;;24.44;37.32;101667.63;5034389;28;20136;-62
2022/06/03 08:25:49;;;;;;;10.75;6.43;;;;;;;24.60;37.23;101676.09;5034522;28;20021;-61
2022/06/03 08:28:20;;;;;;;23.63;7.70;;;;;;;24.93;37.37;101671.34;5034084;28;20073;-62
2022/06/03 08:30:49;;;;;;;37.17;8.27;;;;;;;24.91;37.14;101664.22;5034088;28;20372;-62
2022/06/03 08:33:18;;;;;;;22.13;7.68;;;;;;;24.98;37.59;101669.34;5034442;28;20064;-62
2022/06/03 08:35:46;;;;;;;17.65;6.88;;;;;;;25.04;37.07;101675.47;5034083;28;20099;-59
2022/06/03 08:38:18;;;;;;;25.65;7.32;;;;;;;25.06;36.90;101670.91;5034032;28;20076;-59
2022/06/03 08:40:57;;;;;;;7.50;6.22;;;;;;;24.81;36.21;101670.91;5033809;28;20093;-60
2022/06/03 08:44:05;;;;;;;13.00;6.70;;;;;;;25.03;37.58;101677.28;5034094;28;20044;-59
2022/06/03 08:46:42;;;;;;;6.88;6.03;;;;;;;25.30;35.95;101677.25;5033861;28;20053;-59
2022/06/03 08:49:15;;;;;;;8.25;6.07;;;;;;;25.40;35.81;101666.03;5033758;28;20021;-59
2022/06/03 08:51:46;;;;;;;21.38;6.90;;;;;;;25.44;35.91;101673.09;5033740;28;20430;-59
2022/06/03 08:54:22;;;;;;;16.63;6.43;;;;;;;25.64;36.05;101672.31;5033794;28;20029;-62
2022/06/03 08:56:51;;;;;;;18.85;6.78;;;;;;;25.98;34.99;101671.88;5033701;28;20117;-61
2022/06/03 08:59:31;;;;;;;9.27;5.75;;;;;;;26.20;34.94;101677.31;5033861;28;20361;-62
2022/06/03 09:02:03;;;;;;;8.57;5.85;;;;;;;26.39;34.62;101680.16;5033530;28;20044;-62
2022/06/03 09:04:33;;;;;;;;;;;;;;;26.75;34.94;101668.69;5034113;28;20033;-62
2022/06/03 09:07:14;;;;;;;7.70;5.75;;;;;;;26.91;33.30;101671.63;5033537;28;20363;-62
2022/06/03 09:10:07;;;;;;;7.93;5.40;;;;;;;26.85;34.29;101667.38;5033611;28;20403;-62
2022/06/03 09:12:33;;;;;;;10.63;5.80;;;;;;;26.88;32.15;101664.50;5033411;28;20056;-62
2022/06/03 09:15:10;;;;;;;9.73;6.03;;;;;;;26.94;33.12;101663.34;5033656;28;20084;-62
2022/06/03 09:17:42;;;;;;;10.20;5.50;;;;;;;27.14;32.67;101663.34;5032736;28;20272;-62
2022/06/03 09:20:34;;;;;;;12.68;6.00;;;;;;;27.06;32.40;101659.19;5033441;28;20033;-62
2022/06/03 09:23:03;;;;;;;24.70;6.18;;;;;;;27.01;31.15;101663.94;5024728;28;20529;-62
2022/06/03 09:25:34;;;;;;;9.63;5.10;;;;;;;26.80;32.32;101661.22;5033182;28;20033;-61
2022/06/03 09:28:04;;;;;;;11.05;5.50;;;;;;;26.91;31.41;101660.78;5015403;28;20405;-62
2022/06/03 09:30:37;;;;;;;25.50;6.57;;;;;;;26.76;31.13;101662.31;5033039;28;20033;-61
2022/06/03 09:33:06;;;;;;;11.50;5.10;;;;;;;26.99;30.16;101660.44;5033120;28;20025;-62
2022/06/03 09:35:34;;;;;;;6.07;4.60;;;;;;;26.94;30.26;101653.38;5032870;28;20022;-61
2022/06/03 09:38:01;;;;;;;8.35;4.13;;;;;;;27.31;29.49;101651.72;5032980;28;20041;-62
2022/06/03 09:40:31;;;;;;;9.13;4.50;;;;;;;27.31;30.30;101656.28;5032920;28;20075;-62
2022/06/03 09:43:20;;;;;;;9.48;4.70;;;;;;;27.41;29.90;101653.06;5033010;28;20035;-61
2022/06/03 09:45:49;;;;;;;11.85;4.63;;;;;;;27.42;29.29;101645.81;5032873;28;20029;-62
2022/06/03 09:48:17;;;;;;;10.07;3.50;;;;;;;27.49;28.13;101647.25;5048127;28;20029;-62
2022/06/03 09:50:46;;;;;;;6.18;3.10;;;;;;;27.81;27.96;101651.19;5052375;28;20029;-62
2022/06/03 09:53:12;;;;;;;19.65;4.07;;;;;;;28.01;28.95;101646.59;5049879;28;20481;-61
2022/06/03 09:55:41;;;;;;;7.20;3.58;;;;;;;28.21;27.61;101657.38;5052912;28;20013;-61
2022/06/03 09:58:12;;;;;;;6.65;3.20;;;;;;;28.09;26.96;101652.53;5053149;28;20031;-62
2022/06/03 10:00:49;;;;;;;5.70;4.40;;;;;;;27.99;27.41;101654.84;5053315;28;20110;-61
2022/06/03 10:03:16;;;;;;;5.10;3.50;;;;;;;27.92;26.71;101637.97;5052999;28;20433;-61
2022/06/03 10:05:47;;;;;;;6.35;2.83;;;;;;;27.95;25.79;101639.66;5052502;28;20025;-62
2022/06/03 10:08:13;;;;;;;4.17;2.70;;;;;;;28.11;26.16;101628.91;5053267;28;20031;-62
2022/06/03 10:13:24;;;;;;;5.22;2.90;;;;;;;28.00;26.60;101636.69;5053123;28;20091;-61
2022/06/03 10:16:00;;;;;;;4.85;2.75;;;;;;;28.03;26.99;101637.44;5053159;28;20078;-61
2022/06/03 10:18:39;;;;;;;5.15;2.83;;;;;;;28.19;27.93;101626.69;5059183;28;20025;-62
2022/06/03 10:21:04;;;;;;;5.05;2.97;;;;;;;28.47;25.14;101634.31;5059013;28;20534;-62
2022/06/03 10:23:37;;;;;;;3.93;2.70;;;;;;;28.43;25.25;101628.16;5059063;28;20104;-62
2022/06/03 10:26:04;;;;;;;4.22;2.70;;;;;;;28.30;26.27;101618.84;5059013;28;20286;-62
2022/06/03 10:28:36;;;;;;;4.95;2.70;;;;;;;28.39;25.26;101617.53;5058627;28;20056;-63
2022/06/03 10:31:06;;;;;;;3.92;2.50;;;;;;;28.52;25.96;101613.22;5059075;28;20029;-62
2022/06/03 10:33:32;;;;;;;3.78;2.70;;;;;;;28.56;25.96;101611.22;5058940;28;20083;-62
2022/06/03 10:36:00;;;;;;;8.30;2.80;;;;;;;28.55;25.69;101604.91;5059040;28;20106;-62
2022/06/03 10:38:29;;;;;;;4.80;2.80;;;;;;;28.61;24.64;101606.44;5058778;28;20025;-62
2022/06/03 10:40:55;;;;;;;3.97;2.50;;;;;;;28.68;24.72;101600.56;5058943;28;20043;-62
2022/06/03 10:43:30;;;;;;;4.03;2.70;;;;;;;28.77;24.59;101604.63;5058887;28;20029;-62
2022/06/03 10:46:13;;;;;;;4.85;2.42;;;;;;;28.99;24.91;101593.50;5058874;28;20363;-62
2022/06/03 10:48:40;;;;;;;4.90;2.50;;;;;;;29.19;25.34;101601.47;5058832;28;20024;-62
2022/06/03 10:51:16;;;;;;;5.93;2.55;;;;;;;29.16;24.42;101607.09;5058685;28;20032;-62
2022/06/03 11:02:02;;;;;;;5.75;2.53;;;;;;;29.70;23.65;101590.47;5058973;28;20083;-62
2022/06/03 11:04:38;;;;;;;7.72;2.55;;;;;;;30.03;24.98;101594.94;5058396;28;20028;-62
2022/06/03 11:07:26;;;;;;;4.53;2.30;;;;;;;29.86;23.01;101602.25;5058710;28;20025;-62
2022/06/03 11:10:00;;;;;;;3.85;2.40;;;;;;;30.12;24.72;101592.53;5058549;28;20032;-62
2022/06/03 11:12:30;;;;;;;8.43;2.10;;;;;;;29.98;21.69;101588.84;5058671;28;20471;-62
2022/06/03 11:14:56;;;;;;;3.00;2.00;;;;;;;30.06;20.24;101590.16;5058395;28;20025;-62
2022/06/03 11:17:23;;;;;;;3.92;2.63;;;;;;;30.13;21.22;101582.50;5058552;28;20024;-62
2022/06/03 11:19:52;;;;;;;2.85;2.20;;;;;;;30.13;23.29;101583.38;5058689;28;20031;-62
2022/06/03 11:22:31;;;;;;;3.22;2.20;;;;;;;30.25;22.39;101580.94;5058578;28;20033;-62
2022/06/03 11:25:21;;;;;;;3.90;2.15;;;;;;;30.29;22.02;101583.38;5058762;28;20035;-61
2022/06/03 11:27:52;;;;;;;2.72;2.00;;;;;;;30.22;21.31;101572.94;5056082;28;20055;-62
2022/06/03 11:30:27;;;;;;;2.88;2.20;;;;;;;30.12;21.39;101584.34;5055162;28;20083;-62
2022/06/03 11:33:01;;;;;;;4.93;2.35;;;;;;;30.23;22.10;101572.81;5055195;28;20069;-62
2022/06/03 11:35:45;;;;;;;2.95;2.40;;;;;;;30.10;22.49;101571.78;5055263;28;20053;-62
2022/06/03 11:38:21;;;;;;;4.22;2.67;;;;;;;30.04;22.28;101574.88;5055145;28;20483;-61
2022/06/03 11:40:54;;;;;;;4.40;2.67;;;;;;;30.04;22.83;101567.56;5055199;28;20060;-62
2022/06/03 11:43:27;;;;;;;11.20;2.70;;;;;;;30.07;22.76;101578.31;5055103;28;20032;-62
2022/06/03 11:46:00;;;;;;;2.72;2.17;;;;;;;30.21;23.45;101569.34;5054963;28;20029;-60
2022/06/03 11:48:37;;;;;;;4.75;2.70;;;;;;;30.05;22.74;101563.88;5055033;28;20025;-60
2022/06/03 11:51:03;;;;;;;4.45;2.60;;;;;;;30.29;23.28;101564.28;5054910;28;20090;-60
2022/06/03 11:53:32;;;;;;;3.80;2.40;;;;;;;30.33;21.19;101560.41;5054722;28;20091;-60
2022/06/03 11:56:01;;;;;;;3.45;2.42;;;;;;;29.90;19.75;101565.69;5055296;28;20048;-60
2022/06/03 11:58:48;;;;;;;2.60;2.10;;;;;;;30.01;21.93;101569.59;5054876;28;20051;-60
2022/06/03 12:01:34;;;;;;;2.92;2.10;;;;;;;30.24;23.97;101571.00;5054831;28;20032;-59
2022/06/03 12:04:14;;;;;;;3.67;2.30;;;;;;;30.18;22.56;101585.88;4973568;28;20443;-59
2022/06/03 12:06:49;;;;;;;3.72;2.75;;;;;;;30.08;21.02;101577.34;4973816;28;20034;-60
2022/06/03 12:09:57;;;;;;;2.58;2.20;;;;;;;30.49;23.73;101573.97;4973708;28;20047;-59
2022/06/03 12:15:30;;;;;;;3.42;2.25;;;;;;;30.85;21.13;101581.78;4973737;28;20089;-60
2022/06/03 12:18:06;;;;;;;6.05;2.60;;;;;;;30.67;19.45;101577.44;4973632;28;20065;-60
2022/06/03 12:20:31;;;;;;;3.35;2.30;;;;;;;30.73;19.61;101570.75;4973394;28;20031;-60
2022/06/03 12:23:17;;;;;;;3.45;2.10;;;;;;;30.91;19.66;101559.53;4973665;28;20101;-59
2022/06/03 12:25:48;;;;;;;3.75;2.20;;;;;;;31.07;19.54;101561.31;4934694;29;20051;-60
2022/06/03 12:28:42;;;;;;;3.17;2.30;;;;;;;31.23;20.83;101556.63;4934861;29;20056;-60
2022/06/03 12:31:37;;;;;;;2.10;1.90;;;;;;;31.39;19.69;101545.56;4934942;29;20047;-60
2022/06/03 12:34:24;;;;;;;3.95;2.10;;;;;;;31.75;19.80;101544.13;4936859;29;20561;-60
2022/06/03 12:37:00;;;;;;;3.28;1.90;;;;;;;31.57;19.94;101547.13;4935078;29;20031;-59
2022/06/03 12:39:43;;;;;;;2.90;2.00;;;;;;;31.64;19.86;101542.09;4935375;29;20075;-59
2022/06/03 12:42:27;;;;;;;3.67;2.20;;;;;;;31.53;19.69;101545.56;4988978;28;20034;-60
2022/06/03 12:44:56;;;;;;;3.58;2.50;;;;;;;31.48;19.33;101547.72;4992739;28;20138;-59
2022/06/03 12:47:23;;;;;;;4.20;2.10;;;;;;;31.55;19.86;101545.44;4992300;28;20034;-60
2022/06/03 12:49:53;;;;;;;4.18;2.10;;;;;;;31.79;20.08;101534.75;4992323;28;20416;-60
2022/06/03 12:52:22;;;;;;;4.30;2.40;;;;;;;31.39;18.39;101535.56;4992205;28;20133;-59